«

Dez 28

59.ª Volta à Cidade com 30 atletas do Clube Aventura da Madeira – 28 Dez 2017

A prova de atletismo mais participada de sempre na Região contou com 30 atletas do Clube Aventura da Madeira, entre os 2043 atletas masculinos e as 1032 atletas femininas que participaram na distância principal com 5850 metros.

Leonardo Diogo destacou-se a obter a 41.ª posição no sector masculino, vencendo o escalão M50, com o tempo de 20:44. Timóteo Sousa na 75.ª posição e Pedro Silva na 86.ª posição fecharam a excelente 7.ª posição coletiva do Clube Aventura da Madeira entre as 111 equipas masculinas classificadas.

No sector feminino Nadia Meroni esteve em destaque ao terminar na 47.ª posição da geral, seguindo-se Rosalina Gouveia na 159.ª posição e Luana Andreoli na 163.ª posição, que em conjunto obtiveram a 22.ª posição coletiva entre as 80 equipas classificadas.

26166547_10210457588936066_7375009897524051725_n

Resultados Masculinos

41º 45º Leonardo            Diogo POR 1967 Vet.50 CAMAD 0:20:44

75º 81º Timóteo               Sousa POR 1982 Vet.35 CAMAD 0:21:36

86º 92º Pedro    F.            Silva POR 1986 Senior CAMAD 0:21:55

102º 110º André              F. Caires POR 1979 Vet.35 CAMAD 0:22:11

137º 145º Urbano            Faria POR 1981 Vet.35 CAMAD 0:22:44

140º 148º João  M.          Gomes POR 1978 Vet.35 CAMAD 0:22:46

263º 278º Humberto      Barros POR 1981 Vet.35 CAMAD 0:24:09

294º 312º João  Mendonça POR 1971 Vet.45 CAMAD 0:24:27

311º 332º Stefano           Fernandes POR 1988 Senior CAMAD 0:24:42

481º 524º Horácio            Faria POR 1963 Vet.50 CAMAD 0:26:10

585º 639º João  Soares POR 1962 Vet.55 CAMAD 0:26:54

598º 652º Mário               Gouveia POR 1968 Vet.45 CAMAD 0:26:59

616º 675º Sidónio            Cabral POR 1962 Vet.55 CAMAD 0:27:04

670º 734º Filipe Mota POR 1976 Vet.40 CAMAD 0:27:21

741º 821º António           Olival POR 1972 Vet.45 CAMAD 0:27:46

778º 861º Ricardo            Matos POR 1977 Vet.40 CAMAD 0:27:59

856º 951º Dario Abreu POR 1965 Vet.50 CAMAD 0:28:28

1084º 1233º Bruno          Mendes POR 1981 Vet.35 CAMAD 0:29:58

1133º 1291º Edson          Pereira POR 1982 Vet.35 CAMAD 0:30:16

1140º 1302º Vítor            Marques POR 1985 Senior CAMAD 0:30:18

1153º 1320º Daniel          Pereira POR 1977 Vet.40 CAMAD 0:30:23

1517º 1834º Leonardo Marques POR 1986 Senior nf CAMAD-nf 0:33:15

1835º 2444º Maurício     Branco POR 1940 Vet.70 CAMAD 0:37:56

1864º 2524º Arsénio       Ferreira POR 1939 Vet.70 CAMAD 0:38:56

 

Resultados Femininos

47ª 556ª Nádia  Meroni POR 1971 Vet.45 CAMAD 0:26:26

159ª 1292ª Rosalina        Gouveia POR 1979 Vet.35 CAMAD 0:30:16

163ª 1305ª Luana             Andreoli ITA 1981 Vet.35 CAMAD 0:30:19

501ª 2224ª Nélia              Sousa POR 1973 Vet.40 nf CAMAD-nf 0:36:10

502ª 2225ª Lucília             Sousa POR 1979 Vet.35 nf CAMAD-nf 0:36:10